PHVOP EHLE-EHLE

Flight info

Callsign PHVOP
Flight time 0h 3m
Altitude 1000
Route EHLE EHLE
Aircraft C172/L-V/N

Departure

Time 2026-05-06 09:58
Airport Lelystad Airport (EHLE)

Arrival

Time 2026-05-06 10:02
Airport Lelystad Airport (EHLE)
Time Latitude Longitude Altitude Speed Heading
2026-05-06 09:51 52.45589 5.52412 -9 ft 0 kts 137°
2026-05-06 09:53 52.45588 5.52413 -9 ft 2 kts 128°
2026-05-06 09:53 52.45598 5.52374 -9 ft 8 kts 261°
2026-05-06 09:54 52.45562 5.52285 -9 ft 18 kts 228°
2026-05-06 09:54 52.45459 5.52098 -9 ft 22 kts 228°
2026-05-06 09:54 52.45362 5.51925 -9 ft 20 kts 231°
2026-05-06 09:54 52.45274 5.51766 -9 ft 18 kts 226°
2026-05-06 09:55 52.45216 5.51620 -9 ft 10 kts 221°
2026-05-06 09:55 52.45126 5.51482 -9 ft 26 kts 227°
2026-05-06 09:55 52.45014 5.51281 -9 ft 17 kts 230°
2026-05-06 09:55 52.45034 5.51217 -9 ft 0 kts 349°
2026-05-06 09:57 52.45038 5.51216 -9 ft 6 kts 354°
2026-05-06 09:57 52.45106 5.51173 -9 ft 10 kts 319°
2026-05-06 09:57 52.45181 5.51208 -7 ft 29 kts 47°
2026-05-06 09:58 52.45422 5.51635 64 ft 62 kts 47°
2026-05-06 09:58 52.45727 5.52140 353 ft 62 kts 47°
2026-05-06 09:58 52.46071 5.52662 620 ft 71 kts 42°
2026-05-06 09:58 52.46438 5.53271 918 ft 71 kts 53°
2026-05-06 09:59 52.46858 5.53784 947 ft 91 kts
2026-05-06 09:59 52.47359 5.53050 1031 ft 106 kts 309°
2026-05-06 09:59 52.47352 5.51817 1034 ft 130 kts 235°
2026-05-06 09:59 52.46680 5.50757 1036 ft 129 kts 226°
2026-05-06 10:00 52.46093 5.49758 1050 ft 119 kts 232°
2026-05-06 10:00 52.45552 5.48709 1047 ft 121 kts 232°
2026-05-06 10:00 52.45046 5.47593 932 ft 114 kts 231°
2026-05-06 10:00 52.44429 5.47331 734 ft 87 kts 138°
2026-05-06 10:01 52.43980 5.47964 542 ft 89 kts 129°
2026-05-06 10:01 52.43859 5.48777 407 ft 69 kts 60°
2026-05-06 10:01 52.44130 5.49316 165 ft 58 kts 49°
2026-05-06 10:01 52.44418 5.49825 82 ft 62 kts 45°
2026-05-06 10:02 52.44680 5.50312 -5 ft 43 kts 47°
2026-05-06 10:02 52.44894 5.50685 15 ft 60 kts 47°
2026-05-06 10:02 52.45178 5.51233 257 ft 65 kts 50°
2026-05-06 10:02 52.45507 5.51789 559 ft 65 kts 45°
2026-05-06 10:03 52.45872 5.52357 798 ft 73 kts 45°
2026-05-06 10:03 52.46326 5.52718 1006 ft 82 kts 347°
2026-05-06 10:03 52.46751 5.52036 1061 ft 85 kts 322°
2026-05-06 10:03 52.46955 5.51102 1022 ft 107 kts 252°
2026-05-06 10:04 52.46436 5.50183 949 ft 108 kts 224°
2026-05-06 10:04 52.45939 5.49335 745 ft 96 kts 226°
2026-05-06 10:04 52.45472 5.48893 541 ft 73 kts 169°
2026-05-06 10:04 52.45068 5.49239 364 ft 62 kts 133°
2026-05-06 10:05 52.44714 5.49664 266 ft 61 kts 116°
2026-05-06 10:05 52.44685 5.50282 53 ft 53 kts 57°
2026-05-06 10:05 52.44891 5.50693 -7 ft 40 kts 47°
2026-05-06 10:05 52.45036 5.50951 -9 ft 26 kts 46°
2026-05-06 10:06 52.45207 5.51250 -7 ft 39 kts 49°
2026-05-06 10:06 52.45323 5.51463 -7 ft 13 kts 70°
2026-05-06 10:06 52.45281 5.51559 -8 ft 11 kts 137°
2026-05-06 10:06 52.45228 5.51661 -9 ft 12 kts 90°
2026-05-06 10:07 52.45296 5.51805 -9 ft 18 kts 48°
2026-05-06 10:07 52.45369 5.51937 -9 ft 17 kts 45°
2026-05-06 10:07 52.45474 5.52120 -9 ft 20 kts 47°
2026-05-06 10:07 52.45552 5.52260 -9 ft 13 kts 46°
2026-05-06 10:08 52.45602 5.52350 -9 ft 8 kts 47°
2026-05-06 10:08 52.45593 5.52407 -9 ft 10 kts 142°
2026-05-06 10:08 52.45583 5.52420 -9 ft 0 kts 140°